Weather at Edmonton / Villeneuve Airport

Public forecast

Using degrees Celsius for public forecast. Weather courtesy of forecast.io.

Current aviation weather report (METAR) for Edmonton / Villeneuve Airport

2024/06/19 04:00 (retrieved 39 minutes ago)

CZVL 190400Z AUTO 16005KT 9SM CLR 10/04 A3003 RMK SLP185

Closest aviation forecast (TAF) to Edmonton / Villeneuve Airport

Forecast is more than 6 hours old.

Closest forecast is Edmonton (CFB Namao) Heliport, 13.6 nm (25.1 km) E.

2024/06/18 18:06 Ammendment (retrieved 11 hours ago)

TAF AMD TAF AMD CYED 182102Z 1818/1906 CNL RMK END OF FLY PROGRAM NXT FCST BY 190000Z